Irbit, Russia
Current Conditions -  °F | °C
As of 11:00 PM on Thursday 29 Jan 2015 (Local Time) from USTR Reporting Station
Blowing Snow Blowing Snow  
Wind Chill: -6°   Ceiling: Unl
Heat Index:   Visibility: 6mi
Dew Point: -9°   Wind: 11mph
Humidity: 44%   Direction: 210°SSW
Pressure: 30.18"   Gusts: 18mph
Location:  57.67°N, 63.06°E
Report Text: USTR 291800Z 21005G08MPS 9999 DRSN NSC M13/M23 Q1022 NOSIG RMKQFE757/1009 21CLRD65 30750029
Loading
Personal Weather Stations






























Interactive Weather Map New forecast layout! Learn more

10-Day Weather Forecast

Advertisements
Track Severe Weather on mobile